sensor_id;sensor_type;location;lat;lon;timestamp;pressure;altitude;pressure_sealevel;temperature;humidity
64792;BME280;51226;47.504;19.074;2023-05-20T00:02:48;100694.03;;;16.79;84.22
64792;BME280;51226;47.504;19.074;2023-05-20T00:05:51;100693.03;;;16.71;84.38
64792;BME280;51226;47.504;19.074;2023-05-20T00:08:53;100688.63;;;16.70;84.66
64792;BME280;51226;47.504;19.074;2023-05-20T00:11:57;100678.94;;;16.68;85.06
64792;BME280;51226;47.504;19.074;2023-05-20T00:15:00;100693.00;;;16.69;85.28
64792;BME280;51226;47.504;19.074;2023-05-20T00:18:03;100678.03;;;16.66;85.30
64792;BME280;51226;47.504;19.074;2023-05-20T00:21:06;100682.50;;;16.72;84.45
64792;BME280;51226;47.504;19.074;2023-05-20T00:24:08;100672.72;;;16.65;84.71
64792;BME280;51226;47.504;19.074;2023-05-20T00:27:11;100665.53;;;16.55;85.35
64792;BME280;51226;47.504;19.074;2023-05-20T00:30:14;100667.28;;;16.54;85.79
64792;BME280;51226;47.504;19.074;2023-05-20T00:33:17;100664.63;;;16.53;85.97
64792;BME280;51226;47.504;19.074;2023-05-20T00:36:19;100669.84;;;16.51;86.09
64792;BME280;51226;47.504;19.074;2023-05-20T00:39:22;100666.34;;;16.51;86.37
64792;BME280;51226;47.504;19.074;2023-05-20T00:42:25;100676.00;;;16.52;85.71
64792;BME280;51226;47.504;19.074;2023-05-20T00:45:29;100675.91;;;16.47;86.25
64792;BME280;51226;47.504;19.074;2023-05-20T00:48:36;100669.78;;;16.46;86.54
64792;BME280;51226;47.504;19.074;2023-05-20T00:51:41;100669.78;;;16.46;86.54
64792;BME280;51226;47.504;19.074;2023-05-20T00:54:44;100660.97;;;16.44;86.75
64792;BME280;51226;47.504;19.074;2023-05-20T00:57:48;100667.97;;;16.44;86.78
64792;BME280;51226;47.504;19.074;2023-05-20T01:00:50;100661.81;;;16.43;86.94
64792;BME280;51226;47.504;19.074;2023-05-20T01:03:53;100666.22;;;16.44;86.91
64792;BME280;51226;47.504;19.074;2023-05-20T01:06:57;100657.34;;;16.39;86.58
64792;BME280;51226;47.504;19.074;2023-05-20T01:10:01;100666.97;;;16.37;86.97
64792;BME280;51226;47.504;19.074;2023-05-20T01:13:04;100664.34;;;16.37;87.17
64792;BME280;51226;47.504;19.074;2023-05-20T01:16:09;100663.44;;;16.37;87.15
64792;BME280;51226;47.504;19.074;2023-05-20T01:19:35;100668.63;;;16.34;87.08
64792;BME280;51226;47.504;19.074;2023-05-20T01:22:37;100679.12;;;16.32;87.08
64792;BME280;51226;47.504;19.074;2023-05-20T01:25:39;100674.78;;;16.33;87.13
64792;BME280;51226;47.504;19.074;2023-05-20T01:28:43;100677.41;;;16.33;87.29
64792;BME280;51226;47.504;19.074;2023-05-20T01:31:46;100675.66;;;16.33;87.03
64792;BME280;51226;47.504;19.074;2023-05-20T01:34:49;100677.37;;;16.31;87.08
64792;BME280;51226;47.504;19.074;2023-05-20T01:37:53;100679.12;;;16.32;86.74
64792;BME280;51226;47.504;19.074;2023-05-20T01:40:57;100678.22;;;16.30;86.89
64792;BME280;51226;47.504;19.074;2023-05-20T01:44:01;100681.75;;;16.29;87.26
64792;BME280;51226;47.504;19.074;2023-05-20T01:47:03;100687.87;;;16.29;87.34
64792;BME280;51226;47.504;19.074;2023-05-20T01:50:06;100695.78;;;16.29;87.11
64792;BME280;51226;47.504;19.074;2023-05-20T01:53:09;100691.37;;;16.30;87.16
64792;BME280;51226;47.504;19.074;2023-05-20T01:56:12;100692.31;;;16.30;87.08
64792;BME280;51226;47.504;19.074;2023-05-20T01:59:15;100692.28;;;16.29;86.86
64792;BME280;51226;47.504;19.074;2023-05-20T02:02:18;100691.37;;;16.30;87.12
64792;BME280;51226;47.504;19.074;2023-05-20T02:05:21;100692.31;;;16.32;87.21
64792;BME280;51226;47.504;19.074;2023-05-20T02:08:23;100694.94;;;16.32;86.90
64792;BME280;51226;47.504;19.074;2023-05-20T02:11:26;100694.09;;;16.33;86.89
64792;BME280;51226;47.504;19.074;2023-05-20T02:14:30;100694.13;;;16.35;86.98
64792;BME280;51226;47.504;19.074;2023-05-20T02:17:33;100690.66;;;16.36;86.60
64792;BME280;51226;47.504;19.074;2023-05-20T02:20:35;100689.72;;;16.35;86.56
64792;BME280;51226;47.504;19.074;2023-05-20T02:23:39;100697.66;;;16.37;86.65
64792;BME280;51226;47.504;19.074;2023-05-20T02:26:41;100692.38;;;16.35;86.57
64792;BME280;51226;47.504;19.074;2023-05-20T02:29:46;100692.38;;;16.35;86.57
64792;BME280;51226;47.504;19.074;2023-05-20T02:32:48;100695.00;;;16.35;86.49
64792;BME280;51226;47.504;19.074;2023-05-20T02:35:51;100695.84;;;16.33;86.54
64792;BME280;51226;47.504;19.074;2023-05-20T02:38:54;100691.41;;;16.32;86.38
64792;BME280;51226;47.504;19.074;2023-05-20T02:41:58;100693.16;;;16.29;86.35
64792;BME280;51226;47.504;19.074;2023-05-20T02:45:00;100705.44;;;16.29;86.42
64792;BME280;51226;47.504;19.074;2023-05-20T02:48:03;100701.84;;;16.27;86.44
64792;BME280;51226;47.504;19.074;2023-05-20T02:51:07;100703.59;;;16.26;86.53
64792;BME280;51226;47.504;19.074;2023-05-20T02:54:09;100699.19;;;16.25;86.44
64792;BME280;51226;47.504;19.074;2023-05-20T02:57:12;100699.13;;;16.21;86.43
64792;BME280;51226;47.504;19.074;2023-05-20T03:00:15;100700.81;;;16.19;86.70
64792;BME280;51226;47.504;19.074;2023-05-20T03:03:18;100694.59;;;16.15;86.87
64792;BME280;51226;47.504;19.074;2023-05-20T03:06:20;100695.47;;;16.14;86.71
64792;BME280;51226;47.504;19.074;2023-05-20T03:09:24;100703.38;;;16.14;86.63
64792;BME280;51226;47.504;19.074;2023-05-20T03:12:27;100706.81;;;16.11;86.22
64792;BME280;51226;47.504;19.074;2023-05-20T03:15:29;100705.94;;;16.11;86.50
64792;BME280;51226;47.504;19.074;2023-05-20T03:18:33;100707.63;;;16.07;86.67
64792;BME280;51226;47.504;19.074;2023-05-20T03:21:36;100703.28;;;16.09;85.85
64792;BME280;51226;47.504;19.074;2023-05-20T03:24:39;100708.44;;;16.05;85.80
64792;BME280;51226;47.504;19.074;2023-05-20T03:27:43;100705.75;;;16.03;85.67
64792;BME280;51226;47.504;19.074;2023-05-20T03:30:46;100712.69;;;15.98;86.00
64792;BME280;51226;47.504;19.074;2023-05-20T03:33:50;100712.63;;;15.97;86.30
64792;BME280;51226;47.504;19.074;2023-05-20T03:36:53;100715.16;;;15.92;86.50
64792;BME280;51226;47.504;19.074;2023-05-20T03:39:55;100717.78;;;15.90;86.89
64792;BME280;51226;47.504;19.074;2023-05-20T03:42:58;100718.75;;;15.94;86.49
64792;BME280;51226;47.504;19.074;2023-05-20T03:46:01;100725.69;;;15.92;86.61
64792;BME280;51226;47.504;19.074;2023-05-20T03:49:04;100725.66;;;15.89;86.77
64792;BME280;51226;47.504;19.074;2023-05-20T03:52:07;100720.44;;;15.92;86.91
64792;BME280;51226;47.504;19.074;2023-05-20T03:55:10;100731.75;;;15.88;87.11
64792;BME280;51226;47.504;19.074;2023-05-20T03:58:13;100731.75;;;15.88;87.37
64792;BME280;51226;47.504;19.074;2023-05-20T04:01:17;100725.78;;;15.97;86.39
64792;BME280;51226;47.504;19.074;2023-05-20T04:04:20;100731.00;;;15.93;86.57
64792;BME280;51226;47.504;19.074;2023-05-20T04:07:23;100733.53;;;15.89;86.91
64792;BME280;51226;47.504;19.074;2023-05-20T04:10:26;100744.06;;;15.89;87.54
64792;BME280;51226;47.504;19.074;2023-05-20T04:13:28;100745.87;;;15.93;87.68
64792;BME280;51226;47.504;19.074;2023-05-20T04:16:31;100746.88;;;15.98;87.62
64792;BME280;51226;47.504;19.074;2023-05-20T04:19:34;100750.50;;;16.03;87.65
64792;BME280;51226;47.504;19.074;2023-05-20T04:22:37;100753.25;;;16.09;87.29
64792;BME280;51226;47.504;19.074;2023-05-20T04:25:41;100753.34;;;16.12;86.15
64792;BME280;51226;47.504;19.074;2023-05-20T04:28:46;100754.25;;;16.15;86.52
64792;BME280;51226;47.504;19.074;2023-05-20T04:31:51;100762.22;;;16.18;86.78
64792;BME280;51226;47.504;19.074;2023-05-20T04:34:55;100753.44;;;16.19;86.79
64792;BME280;51226;47.504;19.074;2023-05-20T04:37:59;100750.91;;;16.23;86.73
64792;BME280;51226;47.504;19.074;2023-05-20T04:41:02;100757.12;;;16.27;86.11
64792;BME280;51226;47.504;19.074;2023-05-20T04:44:05;100755.37;;;16.26;85.70
64792;BME280;51226;47.504;19.074;2023-05-20T04:47:08;100753.53;;;16.23;85.60
64792;BME280;51226;47.504;19.074;2023-05-20T04:50:11;100751.87;;;16.27;84.82
64792;BME280;51226;47.504;19.074;2023-05-20T04:53:15;100751.81;;;16.25;84.70
64792;BME280;51226;47.504;19.074;2023-05-20T04:56:18;100752.69;;;16.24;84.52
64792;BME280;51226;47.504;19.074;2023-05-20T04:59:22;100756.25;;;16.26;84.62
64792;BME280;51226;47.504;19.074;2023-05-20T05:02:25;100758.09;;;16.30;85.32
64792;BME280;51226;47.504;19.074;2023-05-20T05:05:28;100765.22;;;16.36;85.70
64792;BME280;51226;47.504;19.074;2023-05-20T05:08:31;100762.75;;;16.44;86.08
64792;BME280;51226;47.504;19.074;2023-05-20T05:11:34;100762.75;;;16.45;84.86
64792;BME280;51226;47.504;19.074;2023-05-20T05:14:37;100756.72;;;16.49;83.29
64792;BME280;51226;47.504;19.074;2023-05-20T05:17:39;100755.06;;;16.55;83.80
64792;BME280;51226;47.504;19.074;2023-05-20T05:20:42;100757.78;;;16.59;82.70
64792;BME280;51226;47.504;19.074;2023-05-20T05:23:46;100749.13;;;16.66;81.98
64792;BME280;51226;47.504;19.074;2023-05-20T05:26:52;100755.41;;;16.73;81.17
64792;BME280;51226;47.504;19.074;2023-05-20T05:29:55;100756.44;;;16.81;80.47
64792;BME280;51226;47.504;19.074;2023-05-20T05:32:58;100762.59;;;16.82;80.51
64792;BME280;51226;47.504;19.074;2023-05-20T05:36:01;100762.72;;;16.87;80.54
64792;BME280;51226;47.504;19.074;2023-05-20T05:39:04;100749.75;;;16.97;79.84
64792;BME280;51226;47.504;19.074;2023-05-20T05:42:06;100760.38;;;17.03;79.10
64792;BME280;51226;47.504;19.074;2023-05-20T05:45:10;100752.75;;;17.20;77.81
64792;BME280;51226;47.504;19.074;2023-05-20T05:48:15;100758.97;;;17.22;77.54
64792;BME280;51226;47.504;19.074;2023-05-20T05:51:17;100763.28;;;17.19;78.53
64792;BME280;51226;47.504;19.074;2023-05-20T05:54:21;100767.88;;;17.29;77.39
64792;BME280;51226;47.504;19.074;2023-05-20T05:57:23;100770.59;;;17.35;77.05
64792;BME280;51226;47.504;19.074;2023-05-20T06:00:27;100769.88;;;17.44;76.84
64792;BME280;51226;47.504;19.074;2023-05-20T06:03:30;100769.16;;;17.54;77.54
64792;BME280;51226;47.504;19.074;2023-05-20T06:06:32;100758.72;;;17.64;76.39
64792;BME280;51226;47.504;19.074;2023-05-20T06:09:36;100762.41;;;17.75;76.19
64792;BME280;51226;47.504;19.074;2023-05-20T06:12:39;100755.44;;;17.80;76.81
64792;BME280;51226;47.504;19.074;2023-05-20T06:15:42;100756.72;;;18.07;74.02
64792;BME280;51226;47.504;19.074;2023-05-20T06:18:45;100753.28;;;18.14;74.45
64792;BME280;51226;47.504;19.074;2023-05-20T06:21:48;100761.47;;;18.34;72.34
64792;BME280;51226;47.504;19.074;2023-05-20T06:24:52;100760.06;;;18.65;65.99
64792;BME280;51226;47.504;19.074;2023-05-20T06:27:56;100762.22;;;18.99;64.57
64792;BME280;51226;47.504;19.074;2023-05-20T06:30:59;100763.31;;;19.24;62.65
64792;BME280;51226;47.504;19.074;2023-05-20T06:34:04;100758.03;;;19.25;63.08
64792;BME280;51226;47.504;19.074;2023-05-20T06:37:07;100762.53;;;19.36;63.58
64792;BME280;51226;47.504;19.074;2023-05-20T06:40:11;100748.59;;;19.58;61.81
64792;BME280;51226;47.504;19.074;2023-05-20T06:43:14;100748.81;;;19.91;59.31
64792;BME280;51226;47.504;19.074;2023-05-20T06:46:17;100755.97;;;20.06;59.67
64792;BME280;51226;47.504;19.074;2023-05-20T06:49:20;100749.00;;;20.31;58.67
64792;BME280;51226;47.504;19.074;2023-05-20T06:52:24;100746.41;;;20.43;58.90
64792;BME280;51226;47.504;19.074;2023-05-20T06:55:27;100749.06;;;20.49;58.89
64792;BME280;51226;47.504;19.074;2023-05-20T06:58:31;100743.84;;;20.66;58.45
64792;BME280;51226;47.504;19.074;2023-05-20T07:01:33;100750.97;;;20.89;58.38
64792;BME280;51226;47.504;19.074;2023-05-20T07:04:37;100744.78;;;21.13;55.70
64792;BME280;51226;47.504;19.074;2023-05-20T07:07:40;100741.25;;;21.36;54.03
64792;BME280;51226;47.504;19.074;2023-05-20T07:10:43;100738.59;;;21.29;55.75
64792;BME280;51226;47.504;19.074;2023-05-20T07:13:49;100743.03;;;21.31;57.21
64792;BME280;51226;47.504;19.074;2023-05-20T07:16:52;100745.66;;;21.46;56.48
64792;BME280;51226;47.504;19.074;2023-05-20T07:19:55;100729.75;;;21.58;56.76
64792;BME280;51226;47.504;19.074;2023-05-20T07:22:58;100731.50;;;21.79;55.14
64792;BME280;51226;47.504;19.074;2023-05-20T07:26:03;100722.53;;;22.05;52.82
64792;BME280;51226;47.504;19.074;2023-05-20T07:29:06;100725.03;;;22.47;50.91
64792;BME280;51226;47.504;19.074;2023-05-20T07:32:11;100720.62;;;22.50;52.25
64792;BME280;51226;47.504;19.074;2023-05-20T07:35:14;100718.75;;;22.60;53.40
64792;BME280;51226;47.504;19.074;2023-05-20T07:38:17;100722.19;;;22.81;49.52
64792;BME280;51226;47.504;19.074;2023-05-20T07:41:20;100720.31;;;22.92;52.21
64792;BME280;51226;47.504;19.074;2023-05-20T07:44:24;100724.63;;;23.11;51.60
64792;BME280;51226;47.504;19.074;2023-05-20T07:47:29;100729.84;;;23.25;52.29
64792;BME280;51226;47.504;19.074;2023-05-20T07:50:33;100729.63;;;23.47;51.84
64792;BME280;51226;47.504;19.074;2023-05-20T07:53:36;100722.38;;;23.66;52.21
64792;BME280;51226;47.504;19.074;2023-05-20T07:56:39;100716.84;;;23.88;51.00
64792;BME280;51226;47.504;19.074;2023-05-20T07:59:43;100719.97;;;24.19;47.22
64792;BME280;51226;47.504;19.074;2023-05-20T08:02:47;100711.66;;;24.44;47.75
64792;BME280;51226;47.504;19.074;2023-05-20T08:05:51;100720.19;;;24.72;48.48
64792;BME280;51226;47.504;19.074;2023-05-20T08:08:53;100706.47;;;24.96;47.18
64792;BME280;51226;47.504;19.074;2023-05-20T08:11:58;100706.72;;;25.36;44.06
64792;BME280;51226;47.504;19.074;2023-05-20T08:15:01;100701.50;;;25.78;42.97
64792;BME280;51226;47.504;19.074;2023-05-20T08:18:06;100708.56;;;25.79;47.38
64792;BME280;51226;47.504;19.074;2023-05-20T08:21:09;100714.34;;;26.04;42.83
64792;BME280;51226;47.504;19.074;2023-05-20T08:24:12;100707.59;;;26.28;43.02
64792;BME280;51226;47.504;19.074;2023-05-20T08:27:15;100705.25;;;26.53;41.32
64792;BME280;51226;47.504;19.074;2023-05-20T08:30:18;100707.72;;;26.61;45.52
64792;BME280;51226;47.504;19.074;2023-05-20T08:33:21;100693.88;;;26.83;44.43
64792;BME280;51226;47.504;19.074;2023-05-20T08:36:24;100699.56;;;27.05;41.28
64792;BME280;51226;47.504;19.074;2023-05-20T08:39:27;100681.88;;;27.35;39.81
64792;BME280;51226;47.504;19.074;2023-05-20T08:42:30;100672.78;;;27.73;38.43
64792;BME280;51226;47.504;19.074;2023-05-20T08:45:33;100685.97;;;28.13;38.30
64792;BME280;51226;47.504;19.074;2023-05-20T08:48:39;100685.06;;;28.42;38.84
64792;BME280;51226;47.504;19.074;2023-05-20T08:51:42;100682.16;;;28.78;39.68
64792;BME280;51226;47.504;19.074;2023-05-20T08:54:45;100672.38;;;29.04;40.59
64792;BME280;51226;47.504;19.074;2023-05-20T08:57:49;100672.91;;;29.40;37.68
64792;BME280;51226;47.504;19.074;2023-05-20T09:00:53;100668.25;;;29.70;36.18
64792;BME280;51226;47.504;19.074;2023-05-20T09:03:55;100668.72;;;29.82;38.30
64792;BME280;51226;47.504;19.074;2023-05-20T09:06:58;100663.59;;;29.99;37.63
64792;BME280;51226;47.504;19.074;2023-05-20T09:10:01;100660.44;;;30.11;38.07
64792;BME280;51226;47.504;19.074;2023-05-20T09:13:04;100661.16;;;30.39;37.04
64792;BME280;51226;47.504;19.074;2023-05-20T09:16:08;100659.19;;;30.66;37.20
64792;BME280;51226;47.504;19.074;2023-05-20T09:19:11;100666.94;;;30.74;35.78
64792;BME280;51226;47.504;19.074;2023-05-20T09:22:14;100665.62;;;30.84;36.08
64792;BME280;51226;47.504;19.074;2023-05-20T09:25:18;100655.47;;;31.13;35.53
64792;BME280;51226;47.504;19.074;2023-05-20T09:28:24;100649.59;;;31.24;35.83
64792;BME280;51226;47.504;19.074;2023-05-20T09:31:29;100648.62;;;31.45;32.53
64792;BME280;51226;47.504;19.074;2023-05-20T09:34:32;100634.06;;;31.70;35.03
64792;BME280;51226;47.504;19.074;2023-05-20T09:37:35;100646.22;;;32.18;30.88
64792;BME280;51226;47.504;19.074;2023-05-20T09:40:38;100633.47;;;32.22;32.16
64792;BME280;51226;47.504;19.074;2023-05-20T09:43:43;100634.50;;;32.56;31.54
64792;BME280;51226;47.504;19.074;2023-05-20T09:46:46;100617.41;;;32.55;32.76
64792;BME280;51226;47.504;19.074;2023-05-20T09:49:51;100612.97;;;32.54;33.10
64792;BME280;51226;47.504;19.074;2023-05-20T09:52:54;100607.41;;;32.57;31.89
64792;BME280;51226;47.504;19.074;2023-05-20T09:55:57;100598.25;;;32.79;28.61
64792;BME280;51226;47.504;19.074;2023-05-20T09:59:02;100605.09;;;33.03;28.17
64792;BME280;51226;47.504;19.074;2023-05-20T10:02:07;100598.25;;;32.96;31.72
64792;BME280;51226;47.504;19.074;2023-05-20T10:05:29;100589.91;;;33.18;30.02
64792;BME280;51226;47.504;19.074;2023-05-20T10:12:03;100593.56;;;33.00;31.03
64792;BME280;51226;47.504;19.074;2023-05-20T10:15:25;100588.94;;;33.19;30.29
64792;BME280;51226;47.504;19.074;2023-05-20T10:21:55;100578.03;;;33.38;29.06
64792;BME280;51226;47.504;19.074;2023-05-20T10:24:58;100582.75;;;33.35;29.04
64792;BME280;51226;47.504;19.074;2023-05-20T10:28:06;100566.91;;;33.27;28.13
64792;BME280;51226;47.504;19.074;2023-05-20T10:31:16;100570.00;;;33.37;30.29
64792;BME280;51226;47.504;19.074;2023-05-20T10:34:20;100563.81;;;33.51;28.31
64792;BME280;51226;47.504;19.074;2023-05-20T10:37:28;100563.53;;;33.39;28.89
64792;BME280;51226;47.504;19.074;2023-05-20T10:40:31;100557.75;;;33.63;31.08
64792;BME280;51226;47.504;19.074;2023-05-20T10:43:34;100554.91;;;33.82;26.54
64792;BME280;51226;47.504;19.074;2023-05-20T10:46:37;100553.47;;;33.59;29.17
64792;BME280;51226;47.504;19.074;2023-05-20T10:50:00;100550.38;;;33.49;25.26
64792;BME280;51226;47.504;19.074;2023-05-20T10:53:04;100539.56;;;33.49;27.06
64792;BME280;51226;47.504;19.074;2023-05-20T10:56:17;100546.56;;;33.53;26.09
64792;BME280;51226;47.504;19.074;2023-05-20T10:59:20;100539.94;;;33.43;29.36
64792;BME280;51226;47.504;19.074;2023-05-20T11:02:24;100538.09;;;33.44;28.41
64792;BME280;51226;47.504;19.074;2023-05-20T11:05:30;100541.72;;;33.42;28.31
64792;BME280;51226;47.504;19.074;2023-05-20T11:08:33;100543.19;;;33.32;27.01
64792;BME280;51226;47.504;19.074;2023-05-20T11:11:35;100540.59;;;33.31;28.51
64792;BME280;51226;47.504;19.074;2023-05-20T11:14:39;100531.97;;;33.40;25.39
64792;BME280;51226;47.504;19.074;2023-05-20T11:17:52;100524.13;;;33.35;26.86
64792;BME280;51226;47.504;19.074;2023-05-20T11:20:58;100527.12;;;33.29;27.22
64792;BME280;51226;47.504;19.074;2023-05-20T11:24:01;100529.75;;;33.31;27.75
64792;BME280;51226;47.504;19.074;2023-05-20T11:27:03;100524.44;;;33.29;27.96
64792;BME280;51226;47.504;19.074;2023-05-20T11:30:06;100529.56;;;33.18;28.48
64792;BME280;51226;47.504;19.074;2023-05-20T11:33:13;100526.53;;;33.07;27.80
64792;BME280;51226;47.504;19.074;2023-05-20T11:36:16;100519.88;;;32.96;26.56
64792;BME280;51226;47.504;19.074;2023-05-20T11:39:29;100514.09;;;32.86;28.33
64792;BME280;51226;47.504;19.074;2023-05-20T11:42:32;100521.47;;;33.00;26.26
64792;BME280;51226;47.504;19.074;2023-05-20T11:45:41;100517.00;;;32.99;28.72
64792;BME280;51226;47.504;19.074;2023-05-20T11:48:50;100516.59;;;33.07;26.91
64792;BME280;51226;47.504;19.074;2023-05-20T11:51:53;100512.72;;;32.95;25.07
64792;BME280;51226;47.504;19.074;2023-05-20T11:54:55;100500.97;;;32.79;26.17
64792;BME280;51226;47.504;19.074;2023-05-20T11:57:58;100506.62;;;32.57;26.42
64792;BME280;51226;47.504;19.074;2023-05-20T12:01:01;100496.12;;;32.33;28.84
64792;BME280;51226;47.504;19.074;2023-05-20T12:04:22;100497.84;;;32.17;30.42
64792;BME280;51226;47.504;19.074;2023-05-20T12:07:25;100505.88;;;32.18;28.62
64792;BME280;51226;47.504;19.074;2023-05-20T12:10:28;100492.94;;;32.25;29.53
64792;BME280;51226;47.504;19.074;2023-05-20T12:13:31;100488.00;;;32.16;29.57
64792;BME280;51226;47.504;19.074;2023-05-20T12:16:36;100495.06;;;31.99;29.57
64792;BME280;51226;47.504;19.074;2023-05-20T12:19:39;100497.19;;;31.92;30.34
64792;BME280;51226;47.504;19.074;2023-05-20T12:22:43;100486.91;;;32.20;27.56
64792;BME280;51226;47.504;19.074;2023-05-20T12:25:46;100491.72;;;31.94;27.78
64792;BME280;51226;47.504;19.074;2023-05-20T12:28:51;100481.16;;;32.08;27.10
64792;BME280;51226;47.504;19.074;2023-05-20T12:31:54;100485.72;;;31.70;30.34
64792;BME280;51226;47.504;19.074;2023-05-20T12:34:57;100484.37;;;31.61;28.29
64792;BME280;51226;47.504;19.074;2023-05-20T12:37:59;100480.78;;;31.61;29.62
64792;BME280;51226;47.504;19.074;2023-05-20T12:41:03;100480.38;;;31.87;27.07
64792;BME280;51226;47.504;19.074;2023-05-20T12:44:05;100479.09;;;31.77;27.70
64792;BME280;51226;47.504;19.074;2023-05-20T12:47:08;100472.09;;;31.35;30.12
64792;BME280;51226;47.504;19.074;2023-05-20T12:50:11;100468.63;;;31.12;30.60
64792;BME280;51226;47.504;19.074;2023-05-20T12:53:13;100488.06;;;31.00;31.02
64792;BME280;51226;47.504;19.074;2023-05-20T12:56:16;100469.59;;;31.11;27.77
64792;BME280;51226;47.504;19.074;2023-05-20T12:59:20;100465.03;;;30.93;29.98
64792;BME280;51226;47.504;19.074;2023-05-20T13:02:23;100469.22;;;30.79;31.96
64792;BME280;51226;47.504;19.074;2023-05-20T13:05:26;100464.09;;;30.73;30.81
64792;BME280;51226;47.504;19.074;2023-05-20T13:08:28;100461.28;;;30.56;31.40
64792;BME280;51226;47.504;19.074;2023-05-20T13:11:31;100447.75;;;30.57;28.60
64792;BME280;51226;47.504;19.074;2023-05-20T13:14:34;100453.06;;;30.38;29.31
64792;BME280;51226;47.504;19.074;2023-05-20T13:17:36;100446.53;;;30.22;30.99
64792;BME280;51226;47.504;19.074;2023-05-20T13:20:39;100440.78;;;30.10;30.44
64792;BME280;51226;47.504;19.074;2023-05-20T13:23:42;100432.81;;;30.07;29.27
64792;BME280;51226;47.504;19.074;2023-05-20T13:26:45;100437.91;;;29.93;30.51
64792;BME280;51226;47.504;19.074;2023-05-20T13:29:48;100438.69;;;29.95;30.43
64792;BME280;51226;47.504;19.074;2023-05-20T13:32:50;100434.47;;;29.89;31.18
64792;BME280;51226;47.504;19.074;2023-05-20T13:35:53;100423.72;;;29.89;33.51
64792;BME280;51226;47.504;19.074;2023-05-20T13:38:56;100427.72;;;29.79;32.40
64792;BME280;51226;47.504;19.074;2023-05-20T13:41:58;100417.91;;;29.77;33.35
64792;BME280;51226;47.504;19.074;2023-05-20T13:45:01;100414.00;;;29.63;31.26
64792;BME280;51226;47.504;19.074;2023-05-20T13:48:05;100426.28;;;29.47;32.67
64792;BME280;51226;47.504;19.074;2023-05-20T13:51:08;100422.22;;;29.36;32.72
64792;BME280;51226;47.504;19.074;2023-05-20T13:54:10;100411.09;;;29.24;32.32
64792;BME280;51226;47.504;19.074;2023-05-20T13:57:13;100418.72;;;29.11;34.35
64792;BME280;51226;47.504;19.074;2023-05-20T14:00:16;100410.25;;;28.98;31.75
64792;BME280;51226;47.504;19.074;2023-05-20T14:03:20;100408.38;;;28.76;33.04
64792;BME280;51226;47.504;19.074;2023-05-20T14:06:23;100404.66;;;28.55;33.05
64792;BME280;51226;47.504;19.074;2023-05-20T14:09:26;100400.06;;;28.59;32.08
64792;BME280;51226;47.504;19.074;2023-05-20T14:12:28;100406.78;;;28.45;33.06
64792;BME280;51226;47.504;19.074;2023-05-20T14:15:31;100405.56;;;28.29;34.38
64792;BME280;51226;47.504;19.074;2023-05-20T14:18:34;100406.72;;;28.22;34.01
64792;BME280;51226;47.504;19.074;2023-05-20T14:21:37;100409.22;;;28.26;33.30
64792;BME280;51226;47.504;19.074;2023-05-20T14:24:39;100390.94;;;28.13;32.04
64792;BME280;51226;47.504;19.074;2023-05-20T14:27:42;100386.88;;;28.01;32.50
64792;BME280;51226;47.504;19.074;2023-05-20T14:30:45;100389.41;;;28.05;31.60
64792;BME280;51226;47.504;19.074;2023-05-20T14:33:47;100388.84;;;27.96;31.53
64792;BME280;51226;47.504;19.074;2023-05-20T14:36:50;100384.84;;;27.81;32.25
64792;BME280;51226;47.504;19.074;2023-05-20T14:39:53;100377.19;;;27.70;31.14
64792;BME280;51226;47.504;19.074;2023-05-20T14:42:56;100388.47;;;27.51;32.20
64792;BME280;51226;47.504;19.074;2023-05-20T14:45:59;100381.56;;;27.44;31.45
64792;BME280;51226;47.504;19.074;2023-05-20T14:49:02;100378.06;;;27.42;31.67
64792;BME280;51226;47.504;19.074;2023-05-20T14:52:05;100375.97;;;27.22;32.67
64792;BME280;51226;47.504;19.074;2023-05-20T14:55:08;100377.31;;;27.07;33.32
64792;BME280;51226;47.504;19.074;2023-05-20T14:58:11;100378.34;;;27.03;32.98
64792;BME280;51226;47.504;19.074;2023-05-20T15:01:14;100385.75;;;26.95;33.70
64792;BME280;51226;47.504;19.074;2023-05-20T15:04:17;100382.38;;;26.88;33.41
64792;BME280;51226;47.504;19.074;2023-05-20T15:07:19;100377.19;;;26.82;33.31
64792;BME280;51226;47.504;19.074;2023-05-20T15:10:22;100374.56;;;26.80;32.89
64792;BME280;51226;47.504;19.074;2023-05-20T15:13:25;100382.66;;;26.77;32.88
64792;BME280;51226;47.504;19.074;2023-05-20T15:16:28;100379.66;;;26.57;33.66
64792;BME280;51226;47.504;19.074;2023-05-20T15:19:30;100381.28;;;26.62;34.77
64792;BME280;51226;47.504;19.074;2023-05-20T15:22:34;100369.81;;;26.57;35.66
64792;BME280;51226;47.504;19.074;2023-05-20T15:25:36;100373.78;;;26.44;36.27
64792;BME280;51226;47.504;19.074;2023-05-20T15:28:39;100362.19;;;26.43;36.74
64792;BME280;51226;47.504;19.074;2023-05-20T15:31:42;100365.75;;;26.44;36.60
64792;BME280;51226;47.504;19.074;2023-05-20T15:34:45;100356.44;;;26.26;36.33
64792;BME280;51226;47.504;19.074;2023-05-20T15:37:47;100350.47;;;26.16;37.01
64792;BME280;51226;47.504;19.074;2023-05-20T15:40:50;100351.50;;;26.11;37.36
64792;BME280;51226;47.504;19.074;2023-05-20T15:43:52;100358.69;;;26.09;39.00
64792;BME280;51226;47.504;19.074;2023-05-20T15:46:56;100347.25;;;26.03;38.53
64792;BME280;51226;47.504;19.074;2023-05-20T15:49:58;100345.81;;;25.88;38.01
64792;BME280;51226;47.504;19.074;2023-05-20T15:53:04;100344.19;;;25.83;38.24
64792;BME280;51226;47.504;19.074;2023-05-20T15:56:06;100348.69;;;25.81;38.81